Time;durP1;ratioP1;P1;durP2;ratioP2;P2;SDS_P1;SDS_P2;PMS_P1;PMS_P2;Temp;Humidity;BMP_temperature;BMP_pressure;BME280_temperature;BME280_humidity;BME280_pressure;Samples;Min_cycle;Max_cycle;Signal;HPM_P1;HPM_P2
2023/01/04 00:00:50;;;;;;;1.57;1.13;;;;;;;16.93;59.19;97915.50;10373149;28;20050;-27
2023/01/04 00:05:51;;;;;;;1.00;0.83;;;;;;;16.94;59.10;97914.69;10367280;28;20038;-27
2023/01/04 00:10:51;;;;;;;1.83;1.27;;;;;;;16.89;59.24;97893.50;10371439;28;20042;-28
2023/01/04 00:15:51;;;;;;;1.43;0.90;;;;;;;16.90;59.48;97910.38;10366620;28;20044;-26
2023/01/04 00:20:52;;;;;;;1.93;1.30;;;;;;;16.92;59.20;97881.75;10371191;28;20034;-27
2023/01/04 00:25:52;;;;;;;1.63;1.37;;;;;;;16.96;60.52;97875.97;10370267;28;20029;-26
2023/01/04 00:30:55;;;;;;;1.70;1.20;;;;;;;17.00;60.33;97876.88;10371862;28;20099;-27
2023/01/04 00:35:55;;;;;;;1.90;1.00;;;;;;;16.97;60.48;97877.66;10369007;28;20045;-26
2023/01/04 00:40:56;;;;;;;1.42;1.00;;;;;;;16.93;60.07;97875.91;10369330;28;20033;-25
2023/01/04 00:45:56;;;;;;;1.53;1.07;;;;;;;16.91;59.74;97879.19;10370971;28;20046;-26
2023/01/04 00:50:57;;;;;;;1.80;0.90;;;;;;;16.90;59.30;97867.38;10369903;28;20034;-25
2023/01/04 00:56:00;;;;;;;1.92;1.35;;;;;;;16.87;59.12;97864.75;10369359;28;20087;-25
2023/01/04 01:01:08;;;;;;;1.45;1.10;;;;;;;16.83;58.91;97847.81;10371240;28;20091;-26
2023/01/04 01:06:09;;;;;;;1.95;0.95;;;;;;;16.87;59.47;97849.56;10369036;28;20053;-25
2023/01/04 01:11:10;;;;;;;1.70;1.23;;;;;;;16.86;59.19;97850.41;10367937;28;20049;-25
2023/01/04 01:16:14;;;;;;;1.70;1.10;;;;;;;16.87;59.33;97862.22;10364417;28;20049;-27
2023/01/04 01:21:23;;;;;;;2.33;0.85;;;;;;;16.82;58.86;97857.06;10362878;28;20049;-25
2023/01/04 01:26:24;;;;;;;3.30;1.00;;;;;;;16.84;58.97;97869.75;10366059;28;20030;-26
2023/01/04 01:31:27;;;;;;;1.52;0.80;;;;;;;16.83;58.67;97852.84;10368682;28;20429;-25
2023/01/04 01:36:28;;;;;;;2.50;0.80;;;;;;;16.83;58.91;97865.50;10366041;28;20410;-27
2023/01/04 01:41:31;;;;;;;2.92;1.13;;;;;;;16.89;60.33;97865.66;10366837;28;20025;-25
2023/01/04 01:46:41;;;;;;;1.25;0.77;;;;;;;16.93;60.40;97870.84;10368373;28;20072;-26
2023/01/04 01:51:42;;;;;;;1.17;0.80;;;;;;;16.88;59.59;97859.75;10367780;28;20416;-25
2023/01/04 01:56:48;;;;;;;3.38;0.85;;;;;;;16.82;59.55;97862.09;10365708;28;20556;-26
2023/01/04 02:01:48;;;;;;;1.40;0.93;;;;;;;16.79;59.09;97859.50;10368771;28;20033;-26
2023/01/04 02:06:56;;;;;;;1.10;0.80;;;;;;;16.80;58.94;97857.81;10366434;28;20037;-26
2023/01/04 02:11:56;;;;;;;1.13;0.82;;;;;;;16.78;58.77;97867.06;10357788;28;20038;-26
2023/01/04 02:17:30;;;;;;;1.02;0.70;;;;;;;16.77;58.81;97858.63;10353752;28;20042;-27
2023/01/04 02:22:56;;;;;;;1.88;0.98;;;;;;;16.75;58.90;97861.94;10365082;28;20061;-26
2023/01/04 02:28:29;;;;;;;1.35;0.68;;;;;;;16.74;58.59;97870.34;10379709;28;20124;-26
2023/01/04 02:33:38;;;;;;;0.73;0.60;;;;;;;16.74;58.52;97857.69;10379590;28;20030;-25
2023/01/04 02:38:57;;;;;;;0.82;0.70;;;;;;;16.76;58.52;97851.00;10358767;28;20549;-26
2023/01/04 02:54:39;;;;;;;0.98;0.75;;;;;;;16.77;60.49;97812.25;10378996;28;20083;-25
2023/01/04 02:59:58;;;;;;;0.80;0.70;;;;;;;16.84;60.53;97819.16;10389747;28;20033;-27
2023/01/04 03:10:40;;;;;;;1.67;1.00;;;;;;;16.77;59.10;97824.03;10388882;28;20037;-27
2023/01/04 03:15:43;;;;;;;1.23;0.57;;;;;;;16.73;58.88;97836.59;10395044;28;20040;-26
2023/01/04 03:20:47;;;;;;;0.88;0.68;;;;;;;16.68;58.81;97832.25;10379358;28;20180;-26
2023/01/04 03:36:56;;;;;;;1.77;0.82;;;;;;;16.71;58.58;97817.13;10381101;28;20030;-25
2023/01/04 03:53:27;;;;;;;0.52;0.50;;;;;;;16.71;58.17;97832.31;10362946;28;20112;-25
2023/01/04 03:58:28;;;;;;;1.58;0.75;;;;;;;16.66;59.04;97823.78;10361876;28;20485;-24
2023/01/04 04:08:48;;;;;;;0.90;0.70;;;;;;;16.74;59.69;97807.13;10383022;28;20038;-25
2023/01/04 04:13:49;;;;;;;1.27;0.60;;;;;;;16.81;59.08;97804.75;10384047;28;20401;-24
2023/01/04 04:18:50;;;;;;;1.15;0.73;;;;;;;16.79;59.76;97805.53;10377693;28;20030;-26
2023/01/04 04:23:53;;;;;;;0.98;0.50;;;;;;;16.75;58.77;97798.72;10361124;28;20413;-25
2023/01/04 04:28:53;;;;;;;0.90;0.80;;;;;;;16.69;58.86;97788.44;10381959;28;20096;-24
2023/01/04 04:33:53;;;;;;;0.80;0.30;;;;;;;16.65;58.44;97781.63;10370052;28;20556;-25
2023/01/04 04:38:54;;;;;;;0.60;0.50;;;;;;;16.63;58.69;97777.34;10375281;28;20405;-26
2023/01/04 04:43:54;;;;;;;1.83;0.70;;;;;;;16.67;58.90;97779.97;10358575;28;20045;-25
2023/01/04 04:48:55;;;;;;;0.60;0.40;;;;;;;16.70;58.78;97774.97;10358824;28;20033;-25
2023/01/04 04:53:56;;;;;;;1.30;0.50;;;;;;;16.75;58.27;97783.53;10390041;28;20304;-26
2023/01/04 04:58:56;;;;;;;0.70;0.50;;;;;;;16.80;57.12;97777.75;10369834;28;20056;-26
2023/01/04 05:03:56;;;;;;;0.60;0.50;;;;;;;16.82;56.63;97781.19;10376255;28;20032;-25
2023/01/04 05:08:57;;;;;;;1.00;0.40;;;;;;;16.86;56.79;97777.91;10357645;28;20076;-26
2023/01/04 05:13:57;;;;;;;0.95;0.38;;;;;;;16.90;56.37;97778.84;10358133;28;20761;-26
2023/01/04 05:18:58;;;;;;;0.70;0.30;;;;;;;16.93;56.11;97789.03;10356100;28;20053;-26
2023/01/04 05:23:58;;;;;;;0.40;0.30;;;;;;;17.00;55.25;97780.75;10352726;28;20088;-26
2023/01/04 05:28:58;;;;;;;2.10;0.50;;;;;;;17.02;56.27;97784.16;10358313;28;20053;-26
2023/01/04 05:33:59;;;;;;;2.40;0.60;;;;;;;17.04;54.32;97762.28;10350729;28;20048;-24
2023/01/04 05:38:59;;;;;;;1.20;0.57;;;;;;;17.04;55.09;97772.41;10358388;28;20091;-25
2023/01/04 05:43:59;;;;;;;1.77;1.07;;;;;;;17.06;54.45;97769.09;10367583;28;20037;-25
2023/01/04 05:49:00;;;;;;;2.17;1.00;;;;;;;16.99;55.77;97774.00;10355143;28;20041;-25
2023/01/04 05:54:00;;;;;;;1.10;0.60;;;;;;;17.07;54.93;97775.00;10378859;28;20045;-27
2023/01/04 05:59:00;;;;;;;1.33;0.80;;;;;;;17.08;55.31;97769.13;10392000;28;20029;-25
2023/01/04 06:04:01;;;;;;;2.10;0.70;;;;;;;17.07;55.18;97775.00;10378928;28;20037;-26
2023/01/04 06:09:01;;;;;;;0.70;0.50;;;;;;;17.05;55.60;97764.84;10367588;28;20045;-26
2023/01/04 06:14:01;;;;;;;3.30;0.77;;;;;;;17.01;55.46;97774.88;10383599;28;20436;-27
2023/01/04 06:19:02;;;;;;;1.97;1.10;;;;;;;17.04;55.85;97782.53;10380741;28;20445;-25
2023/01/04 06:24:03;;;;;;;2.03;0.60;;;;;;;17.02;56.75;97789.22;10380415;28;20493;-26
2023/01/04 06:29:03;;;;;;;2.25;0.60;;;;;;;17.01;57.16;97787.53;10383957;28;20029;-26
2023/01/04 06:34:04;;;;;;;1.77;0.80;;;;;;;17.00;56.50;97790.88;10383574;28;20037;-24
2023/01/04 06:39:06;;;;;;;1.48;0.80;;;;;;;17.00;58.26;97801.00;10385111;28;20044;-24
2023/01/04 06:44:06;;;;;;;1.15;0.70;;;;;;;17.00;58.99;97804.34;10369245;28;20045;-24
2023/01/04 06:49:06;;;;;;;1.10;0.53;;;;;;;17.03;57.20;97803.56;10375070;28;20068;-26
2023/01/04 06:54:10;;;;;;;0.93;0.60;;;;;;;17.03;56.40;97808.63;10383300;28;20300;-26
2023/01/04 06:59:10;;;;;;;0.55;0.55;;;;;;;17.01;56.39;97793.44;10390966;28;20042;-25
2023/01/04 07:04:11;;;;;;;1.23;0.60;;;;;;;17.01;56.38;97788.38;10364064;28;20418;-25
2023/01/04 07:09:11;;;;;;;1.00;0.60;;;;;;;16.98;57.39;97793.34;10361247;28;20297;-26
2023/01/04 07:14:12;;;;;;;3.33;0.70;;;;;;;17.00;56.33;97811.94;10384051;28;20038;-25
2023/01/04 07:19:12;;;;;;;1.98;0.70;;;;;;;17.01;56.73;97803.56;10356146;28;20038;-26
2023/01/04 07:24:13;;;;;;;1.75;0.40;;;;;;;17.02;56.38;97812.00;10383150;28;20036;-25
2023/01/04 07:29:16;;;;;;;0.90;0.70;;;;;;;17.00;57.20;97809.41;10379601;28;20041;-25
2023/01/04 07:34:18;;;;;;;0.90;0.40;;;;;;;17.03;56.38;97809.50;10380163;28;20052;-26
2023/01/04 07:39:19;;;;;;;2.10;0.70;;;;;;;17.01;55.70;97808.63;10381489;28;20041;-25
2023/01/04 07:44:25;;;;;;;3.22;0.50;;;;;;;17.00;55.31;97823.75;10380642;28;20189;-25
2023/01/04 07:49:25;;;;;;;1.38;0.60;;;;;;;17.00;56.09;97828.81;10384422;28;20065;-25
2023/01/04 07:54:25;;;;;;;0.70;0.40;;;;;;;16.99;57.85;97819.53;10390955;28;20030;-25
2023/01/04 07:59:26;;;;;;;1.03;0.63;;;;;;;17.02;57.26;97834.75;10384457;28;20033;-25
2023/01/04 08:04:26;;;;;;;1.23;0.70;;;;;;;17.01;56.80;97817.88;10377220;28;20044;-27
2023/01/04 08:09:26;;;;;;;0.80;0.50;;;;;;;17.00;56.52;97826.28;10384663;28;20823;-25
2023/01/04 08:14:27;;;;;;;0.75;0.55;;;;;;;17.01;56.55;97828.88;10386858;28;20535;-26
2023/01/04 08:19:27;;;;;;;0.53;0.40;;;;;;;17.01;55.91;97831.41;10372091;28;20038;-26
2023/01/04 08:24:28;;;;;;;1.17;0.55;;;;;;;16.97;56.69;97821.13;10377380;28;20038;-25
2023/01/04 08:29:28;;;;;;;1.37;0.50;;;;;;;16.97;56.60;97827.06;10370118;28;20033;-27
2023/01/04 08:34:30;;;;;;;1.70;0.80;;;;;;;16.82;57.32;97831.75;10369889;28;20029;-26
2023/01/04 08:39:34;;;;;;;1.80;0.52;;;;;;;16.94;55.91;97841.31;10379166;28;20127;-26
2023/01/04 08:44:35;;;;;;;1.13;0.60;;;;;;;16.93;55.21;97839.59;10382815;28;20048;-27
2023/01/04 08:49:35;;;;;;;1.48;0.55;;;;;;;16.87;56.19;97835.28;10379245;28;20026;-25
2023/01/04 08:54:36;;;;;;;4.03;0.93;;;;;;;16.89;53.42;97832.78;10372531;28;20025;-25
2023/01/04 08:59:36;;;;;;;1.07;0.53;;;;;;;16.92;53.35;97837.91;10371693;28;20389;-26
2023/01/04 09:04:36;;;;;;;3.27;1.20;;;;;;;16.98;56.15;97827.94;10377760;28;20037;-24
2023/01/04 09:09:37;;;;;;;3.45;0.90;;;;;;;17.00;55.76;97828.81;10371462;28;20092;-26
2023/01/04 09:14:38;;;;;;;4.27;0.70;;;;;;;17.03;56.80;97826.34;10377367;28;20034;-25
2023/01/04 09:19:38;;;;;;;3.13;1.35;;;;;;;17.03;55.77;97796.00;10384492;28;20365;-26
2023/01/04 09:24:38;;;;;;;1.53;1.07;;;;;;;17.05;55.59;97795.22;10370440;28;20096;-24
2023/01/04 09:29:40;;;;;;;2.00;0.87;;;;;;;17.08;55.69;97794.44;10372446;28;20028;-25
2023/01/04 09:34:40;;;;;;;1.88;1.10;;;;;;;17.08;55.25;97789.38;10375963;28;20754;-27
2023/01/04 09:39:41;;;;;;;6.03;1.73;;;;;;;17.11;54.98;97785.22;10383268;28;20038;-27
2023/01/04 09:44:51;;;;;;;4.27;2.10;;;;;;;17.14;55.38;97810.59;10385144;28;20030;-27
2023/01/04 09:49:59;;;;;;;4.05;1.88;;;;;;;17.13;55.27;97810.56;10357788;28;20054;-25
2023/01/04 09:55:07;;;;;;;6.65;3.80;;;;;;;17.07;55.65;97798.63;10384317;28;20048;-26
2023/01/04 10:00:18;;;;;;;3.80;2.17;;;;;;;17.03;55.50;97796.00;10372248;28;20544;-25
2023/01/04 10:05:27;;;;;;;4.80;2.83;;;;;;;17.05;55.50;97814.59;10362815;28;20088;-26
2023/01/04 10:10:47;;;;;;;4.93;2.25;;;;;;;17.07;55.01;97821.41;10352083;28;20041;-26
2023/01/04 10:16:05;;;;;;;4.80;2.20;;;;;;;17.11;55.07;97802.94;10353323;28;20030;-26
2023/01/04 10:21:10;;;;;;;4.78;2.38;;;;;;;17.11;56.01;97795.34;10376058;28;20025;-25
2023/01/04 10:26:17;;;;;;;4.85;2.65;;;;;;;17.09;56.05;97796.13;10363891;28;20069;-25
2023/01/04 10:31:24;;;;;;;8.68;2.50;;;;;;;17.07;56.78;97795.25;10380221;28;20069;-24
2023/01/04 10:36:30;;;;;;;4.57;2.10;;;;;;;17.08;56.38;97791.91;10353118;28;20048;-27
2023/01/04 10:41:47;;;;;;;5.73;2.60;;;;;;;17.07;56.65;97768.25;10380917;28;20453;-27
2023/01/04 10:46:51;;;;;;;17.10;3.40;;;;;;;17.06;56.11;97750.53;10372310;28;20295;-25
2023/01/04 10:51:58;;;;;;;7.15;2.40;;;;;;;17.04;56.97;97742.03;10369767;28;20045;-27
2023/01/04 10:57:16;;;;;;;13.30;2.85;;;;;;;17.06;56.98;97727.78;10360784;28;20116;-24
2023/01/04 11:02:25;;;;;;;4.88;2.80;;;;;;;17.04;57.69;97731.91;10373188;28;20030;-26
2023/01/04 11:07:35;;;;;;;7.47;3.03;;;;;;;17.07;57.82;97732.00;10364469;28;20593;-26
2023/01/04 11:12:36;;;;;;;10.70;2.30;;;;;;;17.01;58.71;97721.75;10385497;28;20040;-25
2023/01/04 11:17:36;;;;;;;8.13;2.93;;;;;;;17.02;58.26;97715.84;10371029;28;20040;-26
2023/01/04 11:22:42;;;;;;;5.18;2.40;;;;;;;17.03;57.74;97712.50;10379390;28;20295;-25
2023/01/04 11:28:06;;;;;;;9.65;2.65;;;;;;;17.11;57.50;97713.53;10382855;28;20034;-25
2023/01/04 11:33:16;;;;;;;8.02;2.25;;;;;;;17.16;57.65;97706.91;10366980;28;20042;-25
2023/01/04 11:38:22;;;;;;;15.23;2.50;;;;;;;17.24;58.84;97685.97;10372559;28;20037;-25
2023/01/04 11:43:24;;;;;;;9.13;2.72;;;;;;;17.30;57.98;97685.22;10384893;28;20515;-27
2023/01/04 11:48:30;;;;;;;10.25;2.55;;;;;;;17.28;58.14;97670.03;10379559;28;20041;-26
2023/01/04 11:53:36;;;;;;;9.80;2.20;;;;;;;17.25;57.89;97657.31;10379846;28;20037;-26
2023/01/04 11:58:37;;;;;;;6.30;2.88;;;;;;;17.21;57.65;97669.88;10379895;28;20041;-27
2023/01/04 12:03:38;;;;;;;5.20;2.30;;;;;;;17.25;57.75;97659.84;10372372;28;20034;-27
2023/01/04 12:08:41;;;;;;;7.38;2.22;;;;;;;17.28;58.42;97646.38;10359365;28;20034;-25
2023/01/04 12:13:41;;;;;;;5.93;3.35;;;;;;;17.27;59.40;97629.50;10371864;28;20042;-26
2023/01/04 12:18:43;;;;;;;10.00;2.30;;;;;;;17.27;58.67;97642.16;10386883;28;20030;-26
2023/01/04 12:23:45;;;;;;;5.30;1.85;;;;;;;17.28;58.94;97637.13;10375230;28;20076;-26
2023/01/04 12:28:47;;;;;;;10.77;2.00;;;;;;;17.29;59.32;97643.03;10360824;28;20049;-25
2023/01/04 12:33:49;;;;;;;6.68;2.35;;;;;;;17.28;59.51;97641.31;10367399;28;20463;-26
2023/01/04 12:39:03;;;;;;;6.85;1.90;;;;;;;17.27;58.73;97624.44;10383432;28;20107;-25
2023/01/04 12:44:35;;;;;;;5.90;2.08;;;;;;;17.26;59.75;97638.75;10370644;28;20042;-25
2023/01/04 12:49:38;;;;;;;6.97;2.08;;;;;;;17.31;60.78;97637.19;10355774;28;20086;-26
2023/01/04 12:54:57;;;;;;;7.85;2.20;;;;;;;17.33;60.57;97625.41;10353586;28;20043;-26
2023/01/04 12:59:59;;;;;;;6.45;2.00;;;;;;;17.34;59.88;97633.84;10368837;28;20049;-27
2023/01/04 13:05:22;;;;;;;8.98;2.40;;;;;;;17.31;61.10;97639.72;10382945;28;20128;-26
2023/01/04 13:10:50;;;;;;;2.60;1.60;;;;;;;17.27;58.93;97645.56;10352417;28;20421;-25
2023/01/04 13:15:50;;;;;;;3.58;1.63;;;;;;;17.23;58.42;97637.88;10381110;28;20041;-26
2023/01/04 13:20:51;;;;;;;4.45;1.83;;;;;;;17.25;58.09;97633.69;10362854;28;20030;-26
2023/01/04 13:25:51;;;;;;;4.95;2.08;;;;;;;17.31;58.10;97618.63;10379693;28;20457;-25
2023/01/04 13:30:59;;;;;;;8.57;2.13;;;;;;;17.34;58.18;97611.09;10368904;28;20033;-25
2023/01/04 13:36:03;;;;;;;6.72;1.80;;;;;;;17.34;59.54;97616.97;10375680;28;20695;-26
2023/01/04 13:41:18;;;;;;;5.93;2.05;;;;;;;17.29;60.20;97613.53;10360823;28;20110;-26
2023/01/04 13:46:25;;;;;;;4.03;1.65;;;;;;;17.33;59.11;97610.22;10373948;28;20121;-24
2023/01/04 13:51:31;;;;;;;6.70;1.52;;;;;;;17.35;59.17;97597.59;10364601;28;20579;-25
2023/01/04 13:56:33;;;;;;;5.95;1.92;;;;;;;17.32;58.84;97610.22;10370510;28;20068;-26
2023/01/04 14:01:42;;;;;;;11.32;2.25;;;;;;;17.40;59.31;97603.63;10366416;28;20068;-26
2023/01/04 14:06:44;;;;;;;7.20;2.35;;;;;;;17.43;61.38;97602.03;10373522;28;20037;-25
2023/01/04 14:11:58;;;;;;;9.15;1.90;;;;;;;17.43;59.46;97596.97;10369595;28;20045;-26
2023/01/04 14:17:13;;;;;;;3.95;1.55;;;;;;;17.41;59.14;97597.75;10376484;28;20045;-25
2023/01/04 14:22:19;;;;;;;5.00;1.83;;;;;;;17.40;58.82;97601.13;10375016;28;20089;-24
2023/01/04 14:27:44;;;;;;;2.63;1.42;;;;;;;17.40;58.82;97585.91;10373163;28;20037;-26
2023/01/04 14:33:12;;;;;;;7.50;1.83;;;;;;;17.42;59.23;97581.72;10373821;28;20038;-25
2023/01/04 14:38:17;;;;;;;8.07;1.63;;;;;;;17.38;58.77;97582.47;10370937;28;20171;-25
2023/01/04 14:43:35;;;;;;;6.70;2.05;;;;;;;17.43;58.59;97588.50;10382916;28;20032;-25
2023/01/04 14:48:35;;;;;;;4.95;1.73;;;;;;;17.43;57.12;97588.50;10371165;28;20037;-25
2023/01/04 14:53:35;;;;;;;8.53;1.77;;;;;;;17.42;57.05;97595.22;10345853;28;20041;-25
2023/01/04 14:58:36;;;;;;;4.13;1.60;;;;;;;17.43;57.56;97596.97;10359629;28;20037;-25
2023/01/04 15:03:37;;;;;;;9.57;2.23;;;;;;;17.45;58.33;97594.44;10352285;28;20030;-25
2023/01/04 15:08:37;;;;;;;7.28;3.22;;;;;;;17.41;59.98;97608.72;10357879;28;20401;-27
2023/01/04 15:13:38;;;;;;;7.60;1.83;;;;;;;17.38;59.25;97582.47;10368563;28;20490;-26
2023/01/04 15:18:42;;;;;;;12.27;2.70;;;;;;;17.47;62.24;97587.72;10356450;28;20065;-26
2023/01/04 15:23:42;;;;;;;9.32;2.55;;;;;;;17.54;60.63;97581.94;10369375;28;20488;-26
2023/01/04 15:28:43;;;;;;;12.00;2.50;;;;;;;17.41;59.88;97578.34;10371333;28;20034;-26
2023/01/04 15:33:43;;;;;;;9.70;2.63;;;;;;;17.40;61.37;97590.97;10370134;28;20356;-26
2023/01/04 15:38:44;;;;;;;6.32;2.63;;;;;;;17.36;62.03;97584.16;10378439;28;20038;-29
2023/01/04 15:43:44;;;;;;;9.43;2.08;;;;;;;17.36;58.77;97586.69;10361182;28;20061;-25
2023/01/04 15:48:44;;;;;;;11.53;3.27;;;;;;;17.38;62.12;97575.75;10366207;28;20038;-26
2023/01/04 15:53:49;;;;;;;14.15;4.32;;;;;;;17.36;62.38;97564.75;10358794;28;20038;-25
2023/01/04 15:58:53;;;;;;;10.90;2.72;;;;;;;17.33;61.01;97558.75;10383635;28;20082;-25
2023/01/04 16:03:54;;;;;;;11.70;2.10;;;;;;;17.35;63.02;97541.91;10368751;28;20113;-26
2023/01/04 16:08:57;;;;;;;6.88;2.05;;;;;;;17.34;60.80;97545.28;10363985;28;20038;-25
2023/01/04 16:13:58;;;;;;;6.78;1.92;;;;;;;17.33;62.78;97533.44;10358108;28;20053;-25
2023/01/04 16:18:58;;;;;;;10.20;1.92;;;;;;;17.34;62.81;97525.03;10362683;28;20082;-26
2023/01/04 16:23:59;;;;;;;12.30;3.73;;;;;;;17.33;62.58;97548.63;10365866;28;20044;-25
2023/01/04 16:29:01;;;;;;;7.15;2.13;;;;;;;17.32;61.59;97562.94;10374845;28;20074;-24
2023/01/04 16:34:02;;;;;;;7.18;2.20;;;;;;;17.32;62.79;97573.06;10381920;28;20106;-26
2023/01/04 16:39:02;;;;;;;4.57;2.20;;;;;;;17.35;62.69;97572.28;10364653;28;20022;-26
2023/01/04 16:44:04;;;;;;;8.25;2.42;;;;;;;17.37;60.38;97560.53;10372471;28;20040;-25
2023/01/04 16:49:08;;;;;;;7.05;2.20;;;;;;;17.38;62.28;97562.22;10358169;28;20030;-25
2023/01/04 16:54:11;;;;;;;8.23;3.80;;;;;;;17.39;62.56;97538.63;10369520;28;20025;-24
2023/01/04 16:59:14;;;;;;;6.75;2.63;;;;;;;17.31;59.68;97535.09;10370717;28;20066;-26
2023/01/04 17:04:15;;;;;;;8.52;3.53;;;;;;;17.36;62.50;97538.59;10384654;28;20053;-27
2023/01/04 17:09:18;;;;;;;9.77;3.88;;;;;;;17.37;61.26;97537.75;10355751;28;20071;-26
2023/01/04 17:14:19;;;;;;;12.18;4.97;;;;;;;17.35;62.37;97504.81;10369366;28;20378;-25
2023/01/04 17:19:19;;;;;;;8.63;4.50;;;;;;;17.35;61.63;97512.41;10375151;28;20021;-26
2023/01/04 17:24:20;;;;;;;9.05;4.05;;;;;;;17.24;61.92;97507.97;10367934;28;20822;-26
2023/01/04 17:29:20;;;;;;;8.77;3.97;;;;;;;17.35;61.89;97535.19;10372834;28;20026;-25
2023/01/04 17:34:21;;;;;;;7.60;3.47;;;;;;;17.32;61.72;97526.69;10372828;28;20037;-26
2023/01/04 17:39:22;;;;;;;6.85;3.72;;;;;;;17.33;62.06;97515.72;10368326;28;20033;-26
2023/01/04 17:44:22;;;;;;;6.32;3.70;;;;;;;17.36;62.27;97498.09;10380679;28;20041;-25
2023/01/04 17:49:22;;;;;;;8.27;3.90;;;;;;;17.38;62.30;97493.91;10369517;28;20030;-25
2023/01/04 17:54:24;;;;;;;5.37;3.80;;;;;;;17.38;61.33;97483.78;10358660;28;20038;-25
2023/01/04 17:59:24;;;;;;;7.05;3.17;;;;;;;17.28;60.75;97470.09;10373764;28;20577;-24
2023/01/04 18:04:25;;;;;;;7.70;3.85;;;;;;;17.38;61.33;97481.25;10363099;28;20100;-25
2023/01/04 18:09:26;;;;;;;9.93;4.00;;;;;;;17.36;62.98;97487.97;10350523;28;20049;-26
2023/01/04 18:14:26;;;;;;;7.72;4.40;;;;;;;17.33;63.45;97487.88;10359559;28;20034;-25
2023/01/04 18:19:28;;;;;;;11.10;3.97;;;;;;;17.30;63.30;97468.44;10359173;28;20025;-27
2023/01/04 18:24:30;;;;;;;13.15;3.78;;;;;;;17.31;62.72;97476.91;10368789;28;20062;-26
2023/01/04 18:29:30;;;;;;;11.43;3.88;;;;;;;17.30;62.75;97458.31;10357113;28;20038;-27
2023/01/04 18:34:31;;;;;;;13.27;4.30;;;;;;;17.32;62.33;97466.78;10354113;28;20039;-26
2023/01/04 18:39:31;;;;;;;14.23;3.78;;;;;;;17.30;61.92;97449.84;10349988;28;20034;-27
2023/01/04 18:44:32;;;;;;;9.10;3.03;;;;;;;17.31;62.09;97464.25;10368426;28;20026;-27
2023/01/04 18:49:32;;;;;;;7.93;3.60;;;;;;;17.31;61.09;97469.31;10344731;28;20335;-26
2023/01/04 18:54:32;;;;;;;8.57;4.53;;;;;;;17.32;63.42;97463.41;10364921;28;20044;-26
2023/01/04 18:59:33;;;;;;;7.50;3.93;;;;;;;17.35;63.10;97450.78;10352768;28;20110;-26
2023/01/04 19:04:35;;;;;;;7.90;4.13;;;;;;;17.30;62.84;97437.19;10347979;28;20034;-26
2023/01/04 19:09:38;;;;;;;9.77;3.58;;;;;;;17.30;62.89;97457.44;10354914;28;20117;-26
2023/01/04 19:14:40;;;;;;;13.77;4.22;;;;;;;17.31;62.10;97467.59;10361559;28;20121;-26
2023/01/04 19:19:42;;;;;;;7.80;3.85;;;;;;;17.30;62.63;97467.56;10364026;28;20041;-26
2023/01/04 19:24:42;;;;;;;8.77;3.88;;;;;;;17.29;62.26;97466.75;10368115;28;20038;-25
2023/01/04 19:29:43;;;;;;;5.80;3.27;;;;;;;17.30;60.99;97465.03;10367198;28;20037;-25
2023/01/04 19:34:43;;;;;;;6.05;3.30;;;;;;;17.27;61.74;97468.41;10362719;28;20297;-25
2023/01/04 19:39:44;;;;;;;7.20;3.58;;;;;;;17.26;62.65;97468.38;10378900;28;20026;-25
2023/01/04 19:44:44;;;;;;;7.67;3.93;;;;;;;17.25;61.53;97462.44;10379545;28;20042;-26
2023/01/04 19:49:46;;;;;;;7.03;3.27;;;;;;;17.28;60.44;97438.88;10368620;28;20038;-26
2023/01/04 19:54:47;;;;;;;7.60;3.63;;;;;;;17.29;61.45;97448.16;10353054;28;20437;-27
2023/01/04 19:59:47;;;;;;;6.70;3.23;;;;;;;17.27;62.27;97465.00;10388551;28;20040;-27
2023/01/04 20:04:47;;;;;;;9.80;3.40;;;;;;;17.26;62.80;97460.78;10367550;28;20044;-26
2023/01/04 20:09:49;;;;;;;6.97;4.00;;;;;;;17.37;63.01;97469.41;10360479;28;20034;-27
2023/01/04 20:14:50;;;;;;;6.10;3.15;;;;;;;17.32;62.80;97465.94;10361713;28;20067;-26
2023/01/04 20:19:50;;;;;;;5.93;2.43;;;;;;;17.29;61.68;97473.47;10370087;28;20407;-26
2023/01/04 20:24:50;;;;;;;6.63;2.67;;;;;;;17.26;61.99;97478.47;10357905;28;20525;-25
2023/01/04 20:29:51;;;;;;;6.50;3.37;;;;;;;17.30;61.73;97468.44;10371598;28;20827;-26
2023/01/04 20:34:51;;;;;;;6.43;3.40;;;;;;;17.31;61.45;97474.38;10367409;28;20042;-26
2023/01/04 20:39:51;;;;;;;5.43;2.80;;;;;;;17.31;61.14;97471.84;10360659;28;20509;-26
2023/01/04 20:44:52;;;;;;;9.97;2.63;;;;;;;17.27;61.18;97473.47;10373707;28;20308;-26
2023/01/04 20:49:52;;;;;;;6.90;3.07;;;;;;;17.28;61.99;97474.28;10373315;28;20049;-24
2023/01/04 20:54:52;;;;;;;4.20;2.67;;;;;;;17.29;61.13;97476.00;10358513;28;20042;-26
2023/01/04 20:59:53;;;;;;;3.87;2.33;;;;;;;17.30;60.96;97480.22;10369211;28;20482;-26
2023/01/04 21:04:53;;;;;;;7.00;2.43;;;;;;;17.29;61.57;97478.53;10357337;28;20046;-25
2023/01/04 21:09:53;;;;;;;4.27;2.57;;;;;;;17.23;61.67;97459.03;10354250;28;20305;-25
2023/01/04 21:14:54;;;;;;;4.03;2.73;;;;;;;17.27;60.87;97468.41;10375774;28;20056;-25
2023/01/04 21:19:54;;;;;;;4.15;2.35;;;;;;;17.29;62.22;97460.81;10362115;28;20026;-26
2023/01/04 21:24:54;;;;;;;8.37;3.17;;;;;;;17.32;63.04;97455.81;10368830;28;20046;-26
2023/01/04 21:29:55;;;;;;;5.67;3.33;;;;;;;17.29;62.57;97445.63;10349125;28;20494;-26
2023/01/04 21:34:55;;;;;;;8.63;3.17;;;;;;;17.28;60.99;97448.97;10358258;28;20042;-28
2023/01/04 21:39:56;;;;;;;3.67;2.75;;;;;;;17.25;62.21;97449.78;10349447;28;20031;-27
2023/01/04 21:44:56;;;;;;;4.73;2.27;;;;;;;17.23;62.50;97435.44;10355529;28;20402;-26
2023/01/04 21:49:57;;;;;;;3.33;2.05;;;;;;;17.23;61.91;97430.38;10356447;28;20041;-26
2023/01/04 21:54:57;;;;;;;4.10;2.97;;;;;;;17.23;62.38;97450.59;10351055;28;20034;-26
2023/01/04 21:59:57;;;;;;;5.13;2.60;;;;;;;17.20;62.26;97435.34;10374575;28;20080;-26
2023/01/04 22:04:58;;;;;;;6.53;2.63;;;;;;;17.15;62.37;97392.28;10366043;28;20038;-25
2023/01/04 22:09:58;;;;;;;4.03;2.25;;;;;;;17.21;62.63;97406.69;10371377;28;20040;-25
2023/01/04 22:14:59;;;;;;;5.33;2.47;;;;;;;17.20;62.57;97427.75;10384117;28;20057;-26
2023/01/04 22:19:59;;;;;;;6.03;2.10;;;;;;;17.22;62.41;97421.91;10368829;28;20068;-26
2023/01/04 22:25:00;;;;;;;6.18;2.17;;;;;;;17.26;61.27;97410.16;10379801;28;20295;-27
2023/01/04 22:30:03;;;;;;;9.27;3.13;;;;;;;17.30;63.08;97422.00;10373823;28;20437;-26
2023/01/04 22:35:04;;;;;;;4.70;1.92;;;;;;;17.27;63.51;97412.72;10376149;28;20034;-26
2023/01/04 22:40:05;;;;;;;3.47;2.15;;;;;;;17.32;63.80;97417.84;10377730;28;20408;-28
2023/01/04 22:45:07;;;;;;;5.10;2.55;;;;;;;17.28;63.56;97413.56;10356652;28;20030;-26
2023/01/04 22:50:08;;;;;;;4.63;1.90;;;;;;;17.27;63.53;97409.31;10374197;28;20026;-27
2023/01/04 22:55:08;;;;;;;9.32;2.05;;;;;;;17.28;63.61;97418.63;10383184;28;20033;-26
2023/01/04 23:00:10;;;;;;;8.27;2.30;;;;;;;17.25;63.64;97393.28;10393734;28;20033;-26
2023/01/04 23:05:10;;;;;;;3.50;2.03;;;;;;;17.23;63.71;97410.13;10382080;28;20300;-25
2023/01/04 23:10:10;;;;;;;8.00;2.23;;;;;;;17.22;63.59;97404.19;10382225;28;20409;-25
2023/01/04 23:15:11;;;;;;;7.73;2.30;;;;;;;17.19;63.61;97399.09;10391826;28;20371;-26
2023/01/04 23:20:11;;;;;;;2.43;1.90;;;;;;;17.20;63.93;97389.81;10377899;28;20022;-26
2023/01/04 23:25:12;;;;;;;7.80;2.83;;;;;;;17.20;63.52;97379.69;10380828;28;20873;-26
2023/01/04 23:30:13;;;;;;;3.63;2.50;;;;;;;17.18;63.70;97371.22;10394921;28;20293;-25
2023/01/04 23:35:14;;;;;;;4.07;2.08;;;;;;;17.17;63.80;97374.59;10372100;28;20052;-26
2023/01/04 23:40:15;;;;;;;5.28;2.17;;;;;;;17.18;63.57;97371.22;10378004;28;20037;-26
2023/01/04 23:45:15;;;;;;;10.57;3.10;;;;;;;17.20;63.99;97359.44;10391191;28;20494;-26
2023/01/04 23:50:16;;;;;;;3.90;2.40;;;;;;;17.22;64.09;97351.06;10373647;28;20038;-27
2023/01/04 23:55:16;;;;;;;4.27;2.17;;;;;;;17.21;63.41;97348.50;10384561;28;20041;-26
